sensor_id;sensor_type;location;lat;lon;timestamp;temperature;humidity
5938;DHT22;2994;51.220;4.412;2023-03-14T00:00:58;14.21;64.30
5938;DHT22;2994;51.220;4.412;2023-03-14T00:03:24;14.07;64.90
5938;DHT22;2994;51.220;4.412;2023-03-14T00:05:49;14.04;65.10
5938;DHT22;2994;51.220;4.412;2023-03-14T00:08:15;14.09;64.61
5938;DHT22;2994;51.220;4.412;2023-03-14T00:10:40;14.06;64.66
5938;DHT22;2994;51.220;4.412;2023-03-14T00:13:06;14.06;64.63
5938;DHT22;2994;51.220;4.412;2023-03-14T00:15:33;14.01;64.76
5938;DHT22;2994;51.220;4.412;2023-03-14T00:17:59;14.05;64.24
5938;DHT22;2994;51.220;4.412;2023-03-14T00:20:24;13.92;64.77
5938;DHT22;2994;51.220;4.412;2023-03-14T00:22:50;14.06;63.94
5938;DHT22;2994;51.220;4.412;2023-03-14T00:25:15;14.01;64.13
5938;DHT22;2994;51.220;4.412;2023-03-14T00:27:41;14.13;63.55
5938;DHT22;2994;51.220;4.412;2023-03-14T00:30:07;14.11;63.57
5938;DHT22;2994;51.220;4.412;2023-03-14T00:32:36;14.01;63.95
5938;DHT22;2994;51.220;4.412;2023-03-14T00:35:02;13.97;63.63
5938;DHT22;2994;51.220;4.412;2023-03-14T00:37:30;13.88;64.32
5938;DHT22;2994;51.220;4.412;2023-03-14T00:39:56;13.92;64.34
5938;DHT22;2994;51.220;4.412;2023-03-14T00:42:22;14.08;63.78
5938;DHT22;2994;51.220;4.412;2023-03-14T00:44:48;14.07;63.46
5938;DHT22;2994;51.220;4.412;2023-03-14T00:47:13;14.01;63.90
5938;DHT22;2994;51.220;4.412;2023-03-14T00:49:38;14.19;63.60
5938;DHT22;2994;51.220;4.412;2023-03-14T00:52:04;14.06;63.88
5938;DHT22;2994;51.220;4.412;2023-03-14T00:54:30;14.00;64.30
5938;DHT22;2994;51.220;4.412;2023-03-14T00:56:55;14.05;64.07
5938;DHT22;2994;51.220;4.412;2023-03-14T00:59:21;14.09;63.97
5938;DHT22;2994;51.220;4.412;2023-03-14T01:01:46;14.00;64.53
5938;DHT22;2994;51.220;4.412;2023-03-14T01:04:12;13.95;64.69
5938;DHT22;2994;51.220;4.412;2023-03-14T01:06:37;14.05;64.75
5938;DHT22;2994;51.220;4.412;2023-03-14T01:09:03;14.06;64.79
5938;DHT22;2994;51.220;4.412;2023-03-14T01:11:33;13.98;65.28
5938;DHT22;2994;51.220;4.412;2023-03-14T01:14:00;14.09;64.88
5938;DHT22;2994;51.220;4.412;2023-03-14T01:16:27;14.13;64.94
5938;DHT22;2994;51.220;4.412;2023-03-14T01:18:53;13.93;65.82
5938;DHT22;2994;51.220;4.412;2023-03-14T01:21:24;14.08;65.42
5938;DHT22;2994;51.220;4.412;2023-03-14T01:23:51;14.08;65.66
5938;DHT22;2994;51.220;4.412;2023-03-14T01:26:19;14.10;65.52
5938;DHT22;2994;51.220;4.412;2023-03-14T01:28:46;14.14;65.40
5938;DHT22;2994;51.220;4.412;2023-03-14T01:31:12;14.11;65.72
5938;DHT22;2994;51.220;4.412;2023-03-14T01:33:39;14.03;66.12
5938;DHT22;2994;51.220;4.412;2023-03-14T01:36:05;14.11;65.60
5938;DHT22;2994;51.220;4.412;2023-03-14T01:38:36;14.06;65.98
5938;DHT22;2994;51.220;4.412;2023-03-14T01:41:02;14.04;66.01
5938;DHT22;2994;51.220;4.412;2023-03-14T01:43:28;14.00;66.08
5938;DHT22;2994;51.220;4.412;2023-03-14T01:51:02;13.83;66.75
5938;DHT22;2994;51.220;4.412;2023-03-14T01:53:30;13.97;66.34
5938;DHT22;2994;51.220;4.412;2023-03-14T01:55:57;13.76;67.23
5938;DHT22;2994;51.220;4.412;2023-03-14T01:58:24;13.79;67.01
5938;DHT22;2994;51.220;4.412;2023-03-14T02:00:52;13.83;67.06
5938;DHT22;2994;51.220;4.412;2023-03-14T02:03:20;13.77;67.35
5938;DHT22;2994;51.220;4.412;2023-03-14T02:05:47;13.80;67.20
5938;DHT22;2994;51.220;4.412;2023-03-14T02:08:15;13.82;66.92
5938;DHT22;2994;51.220;4.412;2023-03-14T02:10:47;13.82;66.98
5938;DHT22;2994;51.220;4.412;2023-03-14T02:13:14;13.79;67.00
5938;DHT22;2994;51.220;4.412;2023-03-14T02:15:41;13.89;66.74
5938;DHT22;2994;51.220;4.412;2023-03-14T02:18:07;13.90;66.78
5938;DHT22;2994;51.220;4.412;2023-03-14T02:26:38;13.84;66.73
5938;DHT22;2994;51.220;4.412;2023-03-14T02:29:05;13.88;66.77
5938;DHT22;2994;51.220;4.412;2023-03-14T02:31:32;13.92;66.72
5938;DHT22;2994;51.220;4.412;2023-03-14T02:33:58;13.91;66.74
5938;DHT22;2994;51.220;4.412;2023-03-14T02:36:25;13.93;66.56
5938;DHT22;2994;51.220;4.412;2023-03-14T02:39:01;13.90;66.68
5938;DHT22;2994;51.220;4.412;2023-03-14T02:41:30;13.83;66.72
5938;DHT22;2994;51.220;4.412;2023-03-14T02:43:56;13.82;66.82
5938;DHT22;2994;51.220;4.412;2023-03-14T02:46:22;13.71;67.40
5938;DHT22;2994;51.220;4.412;2023-03-14T02:48:57;13.90;66.57
5938;DHT22;2994;51.220;4.412;2023-03-14T02:51:23;13.84;66.93
5938;DHT22;2994;51.220;4.412;2023-03-14T02:53:49;13.78;66.93
5938;DHT22;2994;51.220;4.412;2023-03-14T02:56:15;13.75;67.06
5938;DHT22;2994;51.220;4.412;2023-03-14T02:58:40;13.64;67.49
5938;DHT22;2994;51.220;4.412;2023-03-14T03:01:06;13.80;66.81
5938;DHT22;2994;51.220;4.412;2023-03-14T03:03:31;13.77;67.16
5938;DHT22;2994;51.220;4.412;2023-03-14T03:05:57;13.67;67.46
5938;DHT22;2994;51.220;4.412;2023-03-14T03:08:25;13.71;67.41
5938;DHT22;2994;51.220;4.412;2023-03-14T03:10:51;13.64;67.67
5938;DHT22;2994;51.220;4.412;2023-03-14T03:13:17;13.63;67.91
5938;DHT22;2994;51.220;4.412;2023-03-14T03:15:43;13.64;68.04
5938;DHT22;2994;51.220;4.412;2023-03-14T03:18:09;13.80;67.62
5938;DHT22;2994;51.220;4.412;2023-03-14T03:20:34;13.79;67.79
5938;DHT22;2994;51.220;4.412;2023-03-14T03:23:00;13.76;68.09
5938;DHT22;2994;51.220;4.412;2023-03-14T03:25:26;13.74;68.45
5938;DHT22;2994;51.220;4.412;2023-03-14T03:27:52;13.74;68.78
5938;DHT22;2994;51.220;4.412;2023-03-14T03:30:18;13.62;69.81
5938;DHT22;2994;51.220;4.412;2023-03-14T03:32:44;13.58;70.00
5938;DHT22;2994;51.220;4.412;2023-03-14T03:35:09;13.59;70.12
5938;DHT22;2994;51.220;4.412;2023-03-14T03:37:35;13.54;70.58
5938;DHT22;2994;51.220;4.412;2023-03-14T03:40:00;13.71;70.13
5938;DHT22;2994;51.220;4.412;2023-03-14T03:42:27;13.67;70.98
5938;DHT22;2994;51.220;4.412;2023-03-14T03:44:53;13.68;71.08
5938;DHT22;2994;51.220;4.412;2023-03-14T03:47:18;13.66;71.43
5938;DHT22;2994;51.220;4.412;2023-03-14T03:49:43;13.60;72.26
5938;DHT22;2994;51.220;4.412;2023-03-14T03:52:09;13.64;72.22
5938;DHT22;2994;51.220;4.412;2023-03-14T03:54:35;13.56;72.44
5938;DHT22;2994;51.220;4.412;2023-03-14T03:57:00;13.63;72.17
5938;DHT22;2994;51.220;4.412;2023-03-14T03:59:26;13.62;72.45
5938;DHT22;2994;51.220;4.412;2023-03-14T04:01:51;13.64;72.27
5938;DHT22;2994;51.220;4.412;2023-03-14T04:04:17;13.65;72.44
5938;DHT22;2994;51.220;4.412;2023-03-14T04:06:43;13.61;72.64
5938;DHT22;2994;51.220;4.412;2023-03-14T04:09:09;13.66;72.50
5938;DHT22;2994;51.220;4.412;2023-03-14T04:11:35;13.67;72.51
5938;DHT22;2994;51.220;4.412;2023-03-14T04:14:00;13.50;73.27
5938;DHT22;2994;51.220;4.412;2023-03-14T04:16:26;13.62;72.81
5938;DHT22;2994;51.220;4.412;2023-03-14T04:18:52;13.63;72.80
5938;DHT22;2994;51.220;4.412;2023-03-14T04:21:18;13.48;73.36
5938;DHT22;2994;51.220;4.412;2023-03-14T04:23:44;13.58;73.01
5938;DHT22;2994;51.220;4.412;2023-03-14T04:26:09;13.59;72.91
5938;DHT22;2994;51.220;4.412;2023-03-14T04:28:35;13.60;72.83
5938;DHT22;2994;51.220;4.412;2023-03-14T04:31:14;13.52;73.11
5938;DHT22;2994;51.220;4.412;2023-03-14T04:33:40;13.55;72.97
5938;DHT22;2994;51.220;4.412;2023-03-14T04:36:06;13.62;72.74
5938;DHT22;2994;51.220;4.412;2023-03-14T04:38:31;13.60;73.02
5938;DHT22;2994;51.220;4.412;2023-03-14T04:40:57;13.58;73.38
5938;DHT22;2994;51.220;4.412;2023-03-14T04:43:23;13.51;74.02
5938;DHT22;2994;51.220;4.412;2023-03-14T04:45:48;13.61;73.71
5938;DHT22;2994;51.220;4.412;2023-03-14T04:48:14;13.45;74.60
5938;DHT22;2994;51.220;4.412;2023-03-14T04:50:39;13.43;74.97
5938;DHT22;2994;51.220;4.412;2023-03-14T04:53:05;13.55;74.54
5938;DHT22;2994;51.220;4.412;2023-03-14T04:55:31;13.56;74.52
5938;DHT22;2994;51.220;4.412;2023-03-14T04:57:57;13.58;74.75
5938;DHT22;2994;51.220;4.412;2023-03-14T05:00:23;13.55;74.96
5938;DHT22;2994;51.220;4.412;2023-03-14T05:02:48;13.60;74.91
5938;DHT22;2994;51.220;4.412;2023-03-14T05:05:14;13.51;75.57
5938;DHT22;2994;51.220;4.412;2023-03-14T05:07:39;13.48;75.93
5938;DHT22;2994;51.220;4.412;2023-03-14T05:10:05;13.48;75.89
5938;DHT22;2994;51.220;4.412;2023-03-14T05:12:31;13.54;75.77
5938;DHT22;2994;51.220;4.412;2023-03-14T05:14:56;13.59;75.74
5938;DHT22;2994;51.220;4.412;2023-03-14T05:17:21;13.45;76.20
5938;DHT22;2994;51.220;4.412;2023-03-14T05:19:48;13.48;76.04
5938;DHT22;2994;51.220;4.412;2023-03-14T05:22:14;13.51;75.83
5938;DHT22;2994;51.220;4.412;2023-03-14T05:24:39;13.51;75.86
5938;DHT22;2994;51.220;4.412;2023-03-14T05:27:05;13.47;75.87
5938;DHT22;2994;51.220;4.412;2023-03-14T05:29:30;13.43;76.00
5938;DHT22;2994;51.220;4.412;2023-03-14T05:31:56;13.47;75.73
5938;DHT22;2994;51.220;4.412;2023-03-14T05:34:21;13.44;75.69
5938;DHT22;2994;51.220;4.412;2023-03-14T05:36:46;13.52;75.34
5938;DHT22;2994;51.220;4.412;2023-03-14T05:39:12;13.45;75.42
5938;DHT22;2994;51.220;4.412;2023-03-14T05:41:37;13.40;75.45
5938;DHT22;2994;51.220;4.412;2023-03-14T05:44:03;13.44;75.21
5938;DHT22;2994;51.220;4.412;2023-03-14T05:46:29;13.39;75.46
5938;DHT22;2994;51.220;4.412;2023-03-14T05:48:56;13.36;75.73
5938;DHT22;2994;51.220;4.412;2023-03-14T05:51:22;13.36;75.86
5938;DHT22;2994;51.220;4.412;2023-03-14T05:53:47;13.24;76.54
5938;DHT22;2994;51.220;4.412;2023-03-14T05:56:13;13.23;76.91
5938;DHT22;2994;51.220;4.412;2023-03-14T05:58:38;13.27;76.86
5938;DHT22;2994;51.220;4.412;2023-03-14T06:01:04;13.39;76.54
5938;DHT22;2994;51.220;4.412;2023-03-14T06:03:31;13.37;76.99
5938;DHT22;2994;51.220;4.412;2023-03-14T06:05:57;13.34;76.89
5938;DHT22;2994;51.220;4.412;2023-03-14T06:08:22;13.17;77.92
5938;DHT22;2994;51.220;4.412;2023-03-14T06:10:48;13.20;77.63
5938;DHT22;2994;51.220;4.412;2023-03-14T06:13:13;13.12;78.06
5938;DHT22;2994;51.220;4.412;2023-03-14T06:15:40;13.26;77.60
5938;DHT22;2994;51.220;4.412;2023-03-14T06:18:06;13.33;77.08
5938;DHT22;2994;51.220;4.412;2023-03-14T06:20:32;13.31;77.66
5938;DHT22;2994;51.220;4.412;2023-03-14T06:22:58;13.26;77.66
5938;DHT22;2994;51.220;4.412;2023-03-14T06:25:23;13.26;77.81
5938;DHT22;2994;51.220;4.412;2023-03-14T06:27:49;13.20;78.29
5938;DHT22;2994;51.220;4.412;2023-03-14T06:30:15;12.55;77.58
5938;DHT22;2994;51.220;4.412;2023-03-14T06:32:40;12.46;75.99
5938;DHT22;2994;51.220;4.412;2023-03-14T06:35:06;12.41;75.63
5938;DHT22;2994;51.220;4.412;2023-03-14T06:37:31;12.34;74.63
5938;DHT22;2994;51.220;4.412;2023-03-14T06:39:57;12.08;75.24
5938;DHT22;2994;51.220;4.412;2023-03-14T06:42:22;12.01;74.30
5938;DHT22;2994;51.220;4.412;2023-03-14T06:44:48;11.83;74.99
5938;DHT22;2994;51.220;4.412;2023-03-14T06:47:14;11.77;74.31
5938;DHT22;2994;51.220;4.412;2023-03-14T06:49:39;11.64;75.14
5938;DHT22;2994;51.220;4.412;2023-03-14T06:52:05;11.59;75.70
5938;DHT22;2994;51.220;4.412;2023-03-14T06:54:30;11.60;76.02
5938;DHT22;2994;51.220;4.412;2023-03-14T06:56:56;11.53;75.99
5938;DHT22;2994;51.220;4.412;2023-03-14T06:59:21;11.60;76.02
5938;DHT22;2994;51.220;4.412;2023-03-14T07:01:46;11.64;75.83
5938;DHT22;2994;51.220;4.412;2023-03-14T07:04:13;11.44;75.90
5938;DHT22;2994;51.220;4.412;2023-03-14T07:06:39;11.34;75.75
5938;DHT22;2994;51.220;4.412;2023-03-14T07:09:05;11.17;76.80
5938;DHT22;2994;51.220;4.412;2023-03-14T07:11:30;10.99;77.11
5938;DHT22;2994;51.220;4.412;2023-03-14T07:13:56;11.02;77.18
5938;DHT22;2994;51.220;4.412;2023-03-14T07:16:21;10.98;77.59
5938;DHT22;2994;51.220;4.412;2023-03-14T07:18:47;11.10;77.18
5938;DHT22;2994;51.220;4.412;2023-03-14T07:21:12;11.02;76.82
5938;DHT22;2994;51.220;4.412;2023-03-14T07:23:38;10.87;76.86
5938;DHT22;2994;51.220;4.412;2023-03-14T07:26:04;10.68;76.97
5938;DHT22;2994;51.220;4.412;2023-03-14T07:28:29;10.59;77.46
5938;DHT22;2994;51.220;4.412;2023-03-14T07:30:55;10.74;77.18
5938;DHT22;2994;51.220;4.412;2023-03-14T07:33:21;10.73;76.89
5938;DHT22;2994;51.220;4.412;2023-03-14T07:35:48;10.37;77.62
5938;DHT22;2994;51.220;4.412;2023-03-14T07:38:14;10.13;78.53
5938;DHT22;2994;51.220;4.412;2023-03-14T07:40:39;10.36;78.39
5938;DHT22;2994;51.220;4.412;2023-03-14T07:43:05;10.23;78.82
5938;DHT22;2994;51.220;4.412;2023-03-14T07:45:30;10.38;78.59
5938;DHT22;2994;51.220;4.412;2023-03-14T07:47:56;10.37;78.47
5938;DHT22;2994;51.220;4.412;2023-03-14T07:50:23;10.49;78.53
5938;DHT22;2994;51.220;4.412;2023-03-14T07:52:49;10.27;79.70
5938;DHT22;2994;51.220;4.412;2023-03-14T07:55:15;10.28;78.30
5938;DHT22;2994;51.220;4.412;2023-03-14T07:57:40;10.53;77.30
5938;DHT22;2994;51.220;4.412;2023-03-14T08:00:07;10.30;77.89
5938;DHT22;2994;51.220;4.412;2023-03-14T08:02:32;10.55;77.47
5938;DHT22;2994;51.220;4.412;2023-03-14T08:04:58;10.44;76.70
5938;DHT22;2994;51.220;4.412;2023-03-14T08:07:23;10.57;76.57
5938;DHT22;2994;51.220;4.412;2023-03-14T08:09:49;10.63;76.85
5938;DHT22;2994;51.220;4.412;2023-03-14T08:12:14;10.60;76.26
5938;DHT22;2994;51.220;4.412;2023-03-14T08:14:41;10.49;76.68
5938;DHT22;2994;51.220;4.412;2023-03-14T08:17:06;10.53;76.01
5938;DHT22;2994;51.220;4.412;2023-03-14T08:19:33;10.55;76.12
5938;DHT22;2994;51.220;4.412;2023-03-14T08:21:59;10.26;75.71
5938;DHT22;2994;51.220;4.412;2023-03-14T08:24:24;10.22;76.40
5938;DHT22;2994;51.220;4.412;2023-03-14T08:26:50;10.07;76.53
5938;DHT22;2994;51.220;4.412;2023-03-14T08:29:15;10.31;76.07
5938;DHT22;2994;51.220;4.412;2023-03-14T08:31:41;9.98;78.13
5938;DHT22;2994;51.220;4.412;2023-03-14T08:34:06;9.82;77.62
5938;DHT22;2994;51.220;4.412;2023-03-14T08:36:32;9.53;77.89
5938;DHT22;2994;51.220;4.412;2023-03-14T08:38:58;9.67;77.64
5938;DHT22;2994;51.220;4.412;2023-03-14T08:41:24;9.88;76.86
5938;DHT22;2994;51.220;4.412;2023-03-14T08:43:49;9.85;76.53
5938;DHT22;2994;51.220;4.412;2023-03-14T08:46:15;10.09;75.88
5938;DHT22;2994;51.220;4.412;2023-03-14T08:48:40;10.10;76.24
5938;DHT22;2994;51.220;4.412;2023-03-14T08:51:10;10.22;76.61
5938;DHT22;2994;51.220;4.412;2023-03-14T08:53:36;9.98;76.82
5938;DHT22;2994;51.220;4.412;2023-03-14T08:56:02;10.04;77.97
5938;DHT22;2994;51.220;4.412;2023-03-14T08:58:29;9.91;76.57
5938;DHT22;2994;51.220;4.412;2023-03-14T09:00:54;9.99;75.27
5938;DHT22;2994;51.220;4.412;2023-03-14T09:03:20;10.21;75.40
5938;DHT22;2994;51.220;4.412;2023-03-14T09:05:48;10.06;76.37
5938;DHT22;2994;51.220;4.412;2023-03-14T09:08:14;10.04;76.38
5938;DHT22;2994;51.220;4.412;2023-03-14T09:10:39;10.14;75.78
5938;DHT22;2994;51.220;4.412;2023-03-14T09:13:05;10.38;76.18
5938;DHT22;2994;51.220;4.412;2023-03-14T09:15:30;10.36;74.80
5938;DHT22;2994;51.220;4.412;2023-03-14T09:17:56;10.15;74.28
5938;DHT22;2994;51.220;4.412;2023-03-14T09:20:21;10.15;75.43
5938;DHT22;2994;51.220;4.412;2023-03-14T09:22:46;9.95;75.15
5938;DHT22;2994;51.220;4.412;2023-03-14T09:25:12;10.11;75.52
5938;DHT22;2994;51.220;4.412;2023-03-14T09:27:38;10.18;75.41
5938;DHT22;2994;51.220;4.412;2023-03-14T09:30:04;9.81;76.36
5938;DHT22;2994;51.220;4.412;2023-03-14T09:32:30;9.84;76.63
5938;DHT22;2994;51.220;4.412;2023-03-14T09:34:57;10.05;75.97
5938;DHT22;2994;51.220;4.412;2023-03-14T09:37:22;9.57;78.48
5938;DHT22;2994;51.220;4.412;2023-03-14T09:39:50;9.61;78.11
5938;DHT22;2994;51.220;4.412;2023-03-14T09:42:23;9.68;77.93
5938;DHT22;2994;51.220;4.412;2023-03-14T09:47:18;9.65;77.98
5938;DHT22;2994;51.220;4.412;2023-03-14T09:49:45;9.82;78.27
5938;DHT22;2994;51.220;4.412;2023-03-14T09:52:32;9.80;77.75
5938;DHT22;2994;51.220;4.412;2023-03-14T09:55:15;9.76;78.42
5938;DHT22;2994;51.220;4.412;2023-03-14T09:57:41;9.96;77.44
5938;DHT22;2994;51.220;4.412;2023-03-14T10:00:17;10.20;76.52
5938;DHT22;2994;51.220;4.412;2023-03-14T10:02:53;10.14;75.57
5938;DHT22;2994;51.220;4.412;2023-03-14T10:05:22;10.46;75.76
5938;DHT22;2994;51.220;4.412;2023-03-14T10:07:49;10.45;74.84
5938;DHT22;2994;51.220;4.412;2023-03-14T10:10:22;10.62;74.32
5938;DHT22;2994;51.220;4.412;2023-03-14T10:12:58;10.66;74.64
5938;DHT22;2994;51.220;4.412;2023-03-14T10:15:34;10.72;72.87
5938;DHT22;2994;51.220;4.412;2023-03-14T10:18:01;10.85;72.92
5938;DHT22;2994;51.220;4.412;2023-03-14T10:22:59;10.84;68.13
5938;DHT22;2994;51.220;4.412;2023-03-14T10:25:28;10.79;68.82
5938;DHT22;2994;51.220;4.412;2023-03-14T10:27:54;10.88;68.81
5938;DHT22;2994;51.220;4.412;2023-03-14T10:30:39;11.03;66.98
5938;DHT22;2994;51.220;4.412;2023-03-14T10:33:24;11.00;65.53
5938;DHT22;2994;51.220;4.412;2023-03-14T10:35:59;11.09;68.07
5938;DHT22;2994;51.220;4.412;2023-03-14T10:38:36;11.31;63.99
5938;DHT22;2994;51.220;4.412;2023-03-14T10:41:04;11.23;65.75
5938;DHT22;2994;51.220;4.412;2023-03-14T10:43:40;11.25;63.30
5938;DHT22;2994;51.220;4.412;2023-03-14T10:46:14;11.11;61.72
5938;DHT22;2994;51.220;4.412;2023-03-14T10:48:39;11.23;62.81
5938;DHT22;2994;51.220;4.412;2023-03-14T10:53:47;11.41;61.25
5938;DHT22;2994;51.220;4.412;2023-03-14T10:56:14;11.43;63.34
5938;DHT22;2994;51.220;4.412;2023-03-14T10:58:43;11.48;62.82
5938;DHT22;2994;51.220;4.412;2023-03-14T11:06:44;11.39;62.44
5938;DHT22;2994;51.220;4.412;2023-03-14T11:11:39;11.42;61.83
5938;DHT22;2994;51.220;4.412;2023-03-14T11:14:20;11.49;61.64
5938;DHT22;2994;51.220;4.412;2023-03-14T11:17:14;11.57;61.06
5938;DHT22;2994;51.220;4.412;2023-03-14T11:27:46;11.01;65.91
5938;DHT22;2994;51.220;4.412;2023-03-14T11:33:24;10.85;68.03
5938;DHT22;2994;51.220;4.412;2023-03-14T11:36:04;10.87;68.32
5938;DHT22;2994;51.220;4.412;2023-03-14T11:41:12;10.77;68.84
5938;DHT22;2994;51.220;4.412;2023-03-14T11:43:40;10.90;68.52
5938;DHT22;2994;51.220;4.412;2023-03-14T11:46:21;10.72;67.10
5938;DHT22;2994;51.220;4.412;2023-03-14T11:49:04;10.89;66.81
5938;DHT22;2994;51.220;4.412;2023-03-14T11:51:36;11.01;67.52
5938;DHT22;2994;51.220;4.412;2023-03-14T11:54:23;11.15;65.80
5938;DHT22;2994;51.220;4.412;2023-03-14T11:56:51;10.98;69.36
5938;DHT22;2994;51.220;4.412;2023-03-14T11:59:23;11.17;65.22
5938;DHT22;2994;51.220;4.412;2023-03-14T12:02:04;11.22;66.67
5938;DHT22;2994;51.220;4.412;2023-03-14T12:10:12;11.43;66.27
5938;DHT22;2994;51.220;4.412;2023-03-14T12:12:38;11.46;63.62
5938;DHT22;2994;51.220;4.412;2023-03-14T12:15:04;11.48;63.55
5938;DHT22;2994;51.220;4.412;2023-03-14T12:17:40;11.41;64.19
5938;DHT22;2994;51.220;4.412;2023-03-14T12:20:27;11.33;65.02
5938;DHT22;2994;51.220;4.412;2023-03-14T12:23:12;11.33;64.71
5938;DHT22;2994;51.220;4.412;2023-03-14T12:25:37;11.17;65.47
5938;DHT22;2994;51.220;4.412;2023-03-14T12:28:13;11.13;63.86
5938;DHT22;2994;51.220;4.412;2023-03-14T12:30:42;11.16;65.76
5938;DHT22;2994;51.220;4.412;2023-03-14T12:35:41;11.28;65.22
5938;DHT22;2994;51.220;4.412;2023-03-14T12:43:42;11.55;62.03
5938;DHT22;2994;51.220;4.412;2023-03-14T12:48:45;11.64;61.89
5938;DHT22;2994;51.220;4.412;2023-03-14T12:51:35;11.61;61.26
5938;DHT22;2994;51.220;4.412;2023-03-14T12:59:52;11.49;58.94
5938;DHT22;2994;51.220;4.412;2023-03-14T13:02:38;11.48;55.91
5938;DHT22;2994;51.220;4.412;2023-03-14T13:05:16;11.51;55.70
5938;DHT22;2994;51.220;4.412;2023-03-14T13:13:03;11.24;54.05
5938;DHT22;2994;51.220;4.412;2023-03-14T13:15:42;11.32;51.93
5938;DHT22;2994;51.220;4.412;2023-03-14T13:18:23;11.19;47.42
5938;DHT22;2994;51.220;4.412;2023-03-14T13:21:05;11.13;50.18
5938;DHT22;2994;51.220;4.412;2023-03-14T13:23:33;11.28;51.67
5938;DHT22;2994;51.220;4.412;2023-03-14T13:26:00;11.43;48.91
5938;DHT22;2994;51.220;4.412;2023-03-14T13:28:27;11.43;48.76
5938;DHT22;2994;51.220;4.412;2023-03-14T13:31:01;11.32;43.22
5938;DHT22;2994;51.220;4.412;2023-03-14T13:33:27;11.41;45.39
5938;DHT22;2994;51.220;4.412;2023-03-14T13:35:58;11.39;44.86
5938;DHT22;2994;51.220;4.412;2023-03-14T13:38:29;11.49;43.88
5938;DHT22;2994;51.220;4.412;2023-03-14T13:40:57;11.51;45.59
5938;DHT22;2994;51.220;4.412;2023-03-14T13:43:32;11.58;43.93
5938;DHT22;2994;51.220;4.412;2023-03-14T13:46:05;11.62;43.15
5938;DHT22;2994;51.220;4.412;2023-03-14T13:48:33;11.59;39.49
5938;DHT22;2994;51.220;4.412;2023-03-14T13:51:03;11.51;40.98
5938;DHT22;2994;51.220;4.412;2023-03-14T13:53:29;11.54;41.55
5938;DHT22;2994;51.220;4.412;2023-03-14T13:55:55;11.57;44.69
5938;DHT22;2994;51.220;4.412;2023-03-14T13:58:29;11.45;45.55
5938;DHT22;2994;51.220;4.412;2023-03-14T14:00:59;11.53;46.46
5938;DHT22;2994;51.220;4.412;2023-03-14T14:03:25;11.58;43.81
5938;DHT22;2994;51.220;4.412;2023-03-14T14:05:51;11.47;41.80
5938;DHT22;2994;51.220;4.412;2023-03-14T14:08:16;11.28;35.38
5938;DHT22;2994;51.220;4.412;2023-03-14T14:10:42;11.26;34.02
5938;DHT22;2994;51.220;4.412;2023-03-14T14:13:14;11.08;30.30
5938;DHT22;2994;51.220;4.412;2023-03-14T14:15:45;10.99;34.91
5938;DHT22;2994;51.220;4.412;2023-03-14T14:18:18;10.99;35.30
5938;DHT22;2994;51.220;4.412;2023-03-14T14:20:45;11.02;32.43
5938;DHT22;2994;51.220;4.412;2023-03-14T14:23:22;11.03;35.11
5938;DHT22;2994;51.220;4.412;2023-03-14T14:25:55;10.90;31.20
5938;DHT22;2994;51.220;4.412;2023-03-14T14:33:41;10.78;35.70
5938;DHT22;2994;51.220;4.412;2023-03-14T14:39:00;10.82;31.66
5938;DHT22;2994;51.220;4.412;2023-03-14T14:41:31;10.78;35.05
5938;DHT22;2994;51.220;4.412;2023-03-14T14:44:00;10.98;36.02
5938;DHT22;2994;51.220;4.412;2023-03-14T14:46:30;11.10;36.99
5938;DHT22;2994;51.220;4.412;2023-03-14T14:49:02;11.04;36.73
5938;DHT22;2994;51.220;4.412;2023-03-14T14:51:38;11.02;40.75
5938;DHT22;2994;51.220;4.412;2023-03-14T14:54:33;11.10;40.97
5938;DHT22;2994;51.220;4.412;2023-03-14T14:57:03;11.03;41.15
5938;DHT22;2994;51.220;4.412;2023-03-14T14:59:29;10.94;41.52
5938;DHT22;2994;51.220;4.412;2023-03-14T15:01:58;10.75;41.71
5938;DHT22;2994;51.220;4.412;2023-03-14T15:04:31;10.75;43.84
5938;DHT22;2994;51.220;4.412;2023-03-14T15:06:56;10.59;43.60
5938;DHT22;2994;51.220;4.412;2023-03-14T15:09:22;10.67;44.64
5938;DHT22;2994;51.220;4.412;2023-03-14T15:11:48;10.59;45.53
5938;DHT22;2994;51.220;4.412;2023-03-14T15:14:16;10.68;44.84
5938;DHT22;2994;51.220;4.412;2023-03-14T15:16:41;10.78;44.76
5938;DHT22;2994;51.220;4.412;2023-03-14T15:19:25;10.72;43.58
5938;DHT22;2994;51.220;4.412;2023-03-14T15:21:53;10.69;43.94
5938;DHT22;2994;51.220;4.412;2023-03-14T15:24:18;10.68;44.68
5938;DHT22;2994;51.220;4.412;2023-03-14T15:26:44;10.59;42.30
5938;DHT22;2994;51.220;4.412;2023-03-14T15:29:11;10.55;44.39
5938;DHT22;2994;51.220;4.412;2023-03-14T15:31:38;10.40;44.70
5938;DHT22;2994;51.220;4.412;2023-03-14T15:34:03;10.31;42.94
5938;DHT22;2994;51.220;4.412;2023-03-14T15:36:31;10.37;44.23
5938;DHT22;2994;51.220;4.412;2023-03-14T15:38:57;10.39;45.06
5938;DHT22;2994;51.220;4.412;2023-03-14T15:41:25;10.44;45.01
5938;DHT22;2994;51.220;4.412;2023-03-14T15:43:51;10.34;45.90
5938;DHT22;2994;51.220;4.412;2023-03-14T15:46:17;10.21;46.71
5938;DHT22;2994;51.220;4.412;2023-03-14T15:48:46;10.13;46.89
5938;DHT22;2994;51.220;4.412;2023-03-14T15:51:11;10.16;47.15
5938;DHT22;2994;51.220;4.412;2023-03-14T15:53:37;10.20;47.12
5938;DHT22;2994;51.220;4.412;2023-03-14T15:56:05;10.30;45.38
5938;DHT22;2994;51.220;4.412;2023-03-14T15:58:31;10.33;45.64
5938;DHT22;2994;51.220;4.412;2023-03-14T16:01:00;10.26;43.52
5938;DHT22;2994;51.220;4.412;2023-03-14T16:03:27;10.06;41.60
5938;DHT22;2994;51.220;4.412;2023-03-14T16:05:52;10.18;42.32
5938;DHT22;2994;51.220;4.412;2023-03-14T16:08:17;10.28;43.19
5938;DHT22;2994;51.220;4.412;2023-03-14T16:10:43;10.30;43.86
5938;DHT22;2994;51.220;4.412;2023-03-14T16:13:09;10.31;43.66
5938;DHT22;2994;51.220;4.412;2023-03-14T16:15:35;10.34;44.34
5938;DHT22;2994;51.220;4.412;2023-03-14T16:18:00;10.37;44.17
5938;DHT22;2994;51.220;4.412;2023-03-14T16:20:25;10.42;44.00
5938;DHT22;2994;51.220;4.412;2023-03-14T16:22:51;10.25;45.21
5938;DHT22;2994;51.220;4.412;2023-03-14T16:25:17;10.42;45.61
5938;DHT22;2994;51.220;4.412;2023-03-14T16:27:46;10.41;45.17
5938;DHT22;2994;51.220;4.412;2023-03-14T16:30:11;10.27;47.10
5938;DHT22;2994;51.220;4.412;2023-03-14T16:32:38;10.45;45.30
5938;DHT22;2994;51.220;4.412;2023-03-14T16:35:04;10.50;45.56
5938;DHT22;2994;51.220;4.412;2023-03-14T16:37:30;10.50;44.99
5938;DHT22;2994;51.220;4.412;2023-03-14T16:39:55;10.46;43.72
5938;DHT22;2994;51.220;4.412;2023-03-14T16:42:21;10.36;45.70
5938;DHT22;2994;51.220;4.412;2023-03-14T16:44:47;10.28;44.84
5938;DHT22;2994;51.220;4.412;2023-03-14T16:47:12;10.14;46.35
5938;DHT22;2994;51.220;4.412;2023-03-14T16:49:38;10.22;45.84
5938;DHT22;2994;51.220;4.412;2023-03-14T16:52:04;10.23;45.64
5938;DHT22;2994;51.220;4.412;2023-03-14T16:54:31;10.29;44.19
5938;DHT22;2994;51.220;4.412;2023-03-14T16:56:57;10.13;44.83
5938;DHT22;2994;51.220;4.412;2023-03-14T16:59:22;10.18;45.25
5938;DHT22;2994;51.220;4.412;2023-03-14T17:01:49;10.27;46.24
5938;DHT22;2994;51.220;4.412;2023-03-14T17:04:15;10.16;46.13
5938;DHT22;2994;51.220;4.412;2023-03-14T17:06:40;10.23;44.84
5938;DHT22;2994;51.220;4.412;2023-03-14T17:09:06;10.16;45.64
5938;DHT22;2994;51.220;4.412;2023-03-14T17:11:32;10.08;44.77
5938;DHT22;2994;51.220;4.412;2023-03-14T17:13:59;10.00;45.58
5938;DHT22;2994;51.220;4.412;2023-03-14T17:16:25;10.03;44.48
5938;DHT22;2994;51.220;4.412;2023-03-14T17:18:50;10.15;44.97
5938;DHT22;2994;51.220;4.412;2023-03-14T17:21:16;10.22;44.12